• Join FlightAware (Why Join?)
  • Login
  • US Flag 
10:49PM EDT


 

Airport Tracker/Info


-or-


 

Live Flight TrackerFlight Track Log ✈ AFL150 ✈ 20-Jan-2014 ✈ UUEE / SVO - MUHA / HAV

Flight Track Log - Related Links

Times and Time Zones

All times are in EST time to prevent confusion due to time zone crossing. See the AFL150 flight status page for this flight to view local times or setup timezone preferences in your user account.

Time Position Orientation Groundspeed Altitude Reporting Facility
EST Latitude Longitude Course Direction KTS MPH feet Rate Location/Type
04:38AM 56.1219 37.4184 315° West  Level FlightAware Approximate
04:39AM 56.2087 37.2638 315° West  Level FlightAware Approximate
04:40AM 56.2953 37.1085 315° West  Level FlightAware Approximate
04:41AM 56.3817 36.9525 315° West  Level FlightAware Approximate
04:42AM 56.4680 36.7958 315° West  Level FlightAware Approximate
04:43AM 56.5540 36.6384 315° West  Level FlightAware Approximate
04:44AM 56.6399 36.4803 315° West  Level FlightAware Approximate
04:45AM 56.7255 36.3215 315° West  Level FlightAware Approximate
04:46AM 56.8109 36.1619 314° West  Level FlightAware Approximate
04:47AM 56.8961 36.0016 314° West  Level FlightAware Approximate
04:48AM 56.9812 35.8406 314° West  Level FlightAware Approximate
04:49AM 57.0660 35.6788 314° West  Level FlightAware Approximate
04:50AM 57.1506 35.5163 314° West  Level FlightAware Approximate
04:51AM 57.2350 35.3530 314° West  Level FlightAware Approximate
04:52AM 57.3191 35.1890 314° West  Level FlightAware Approximate
04:53AM 57.4031 35.0243 313° West  Level FlightAware Approximate
04:54AM 57.4869 34.8588 313° West  Level FlightAware Approximate
04:55AM 57.5704 34.6925 313° West  Level FlightAware Approximate
04:56AM 57.6354 34.5648 314° West  Level FlightAware Approximate
04:57AM 57.7197 34.3992 314° West  Level FlightAware Approximate
04:58AM 57.8038 34.2328 314° West  Level FlightAware Approximate
04:59AM 57.8876 34.0656 313° West  Level FlightAware Approximate
05:00AM 57.9712 33.8977 313° West  Level FlightAware Approximate
05:01AM 58.0546 33.7289 313° West  Level FlightAware Approximate
05:02AM 58.1378 33.5594 313° West  Level FlightAware Approximate
05:03AM 58.2208 33.3891 313° West  Level FlightAware Approximate
05:04AM 58.3035 33.2180 313° West  Level FlightAware Approximate
05:05AM 58.3860 33.0460 313° West  Level FlightAware Approximate
05:05AM 56.4106 32.8088 313° West 447 514 34,000  Level FlightAware ADS-B (EVDA / DGP)
05:08AM 56.5331 31.3398 303° West 448 516 34,000  Level FlightAware ADS-B (EVDA / DGP)
05:09AM 56.5687 31.1128 286° West 443 510 34,000  Level FlightAware ADS-B (EVDA / DGP)
05:10AM 56.6286 30.9130 299° West 442 509 34,000  Level FlightAware ADS-B (EVDA / DGP)
05:11AM 56.7064 30.7419 310° West 443 510 34,000  Level FlightAware ADS-B (EVDA / DGP)
05:12AM 56.7766 30.5607 305° West 444 511 34,000  Level FlightAware ADS-B (EVDA / DGP)
05:13AM 56.8463 30.3754 305° West 447 514 34,000  Level FlightAware ADS-B (EVDA / DGP)
05:15AM 56.9847 29.9978 304° West 447 514 34,000  Level FlightAware ADS-B (EVDA / DGP)
05:16AM 57.0522 29.8116 304° West 447 514 34,000  Level FlightAware ADS-B (EVDA / DGP)
05:17AM 57.1207 29.6209 304° West 447 514 34,000  Level FlightAware ADS-B (EVDA / DGP)
05:18AM 57.1882 29.4319 303° West 448 516 34,000  Level FlightAware ADS-B (EVDA / DGP)
05:19AM 57.2567 29.2382 303° West 450 518 34,000  Level FlightAware ADS-B (EVDA / DGP)
05:20AM 57.3206 29.0568 303° West 451 519 34,000  Level FlightAware ADS-B (EVDA / DGP)
05:21AM 57.3892 28.8600 303° West 452 520 34,000  Level FlightAware ADS-B (EVDA / DGP)
05:22AM 57.4603 28.6544 303° West 453 521 34,000  Level FlightAware ADS-B (EVDA / DGP)
05:23AM 57.5274 28.4589 303° West 451 519 34,000  Level FlightAware ADS-B (EVDA / DGP)
05:24AM 57.5935 28.2643 302° West 451 519 34,000  Level FlightAware ADS-B (EVDA / DGP)
05:25AM 57.6603 28.0668 302° West 451 519 34,000  Level FlightAware ADS-B (EVDA / DGP)
05:26AM 57.7271 27.8678 302° West 452 520 34,000  Level FlightAware ADS-B (EVDA / DGP)
05:27AM 57.7925 27.6709 302° West 450 518 34,000  Level FlightAware ADS-B (EVDA / DGP)
05:28AM 57.8503 27.4671 298° West 451 519 34,000  Level FlightAware ADS-B (EVDA / DGP)
05:29AM 57.8936 27.2495 291° West 449 517 34,000  Level FlightAware ADS-B (EVDA / DGP)
05:30AM 57.9379 27.0292 291° West 448 516 34,000  Level FlightAware ADS-B (EVDA / DGP)
05:31AM 57.9813 26.8111 291° West 449 517 34,000  Level FlightAware ADS-B (EVDA / DGP)
05:32AM 58.0250 26.5896 291° West 450 518 34,000  Level FlightAware ADS-B (EVDA / DGP)
05:33AM 58.0679 26.3693 290° West 450 518 34,000  Level FlightAware ADS-B (EVDA / DGP)
05:34AM 58.1106 26.1476 290° West 453 521 34,000  Level FlightAware ADS-B (EVDA / DGP)
05:35AM 58.1533 25.9228 290° West 455 524 34,000  Level FlightAware ADS-B (EVDA / DGP)
05:36AM 58.1942 25.7067 290° West 454 522 34,000  Level FlightAware ADS-B (EVDA / DGP)
05:37AM 58.2371 25.4760 290° West 456 525 34,000  Level FlightAware ADS-B (EVDA / DGP)
05:38AM 58.2781 25.2523 289° West 454 522 34,000  Level FlightAware ADS-B (EVDA / DGP)
05:39AM 58.3185 25.0302 289° West 454 522 34,000  Level FlightAware ADS-B (EVDA / DGP)
05:40AM 58.3604 24.7954 289° West 456 525 34,000  Level FlightAware ADS-B (EVDA / DGP)
05:42AM 58.4351 24.3648 288° West 457 526 34,000  Level FlightAware ADS-B (EVDA / DGP)
05:54AM 58.8173 21.6422 294° West 447 514 34,000  Level FlightAware ADS-B (ESKB)
05:55AM 58.8470 21.4082 284° West 447 514 34,000  Level FlightAware ADS-B (ESKB)
05:56AM 58.8687 21.2352 284° West 446 513 34,000  Level FlightAware ADS-B (ESKB)
05:57AM 58.8979 21.0031 284° West 445 512 34,000  Level FlightAware ADS-B (ESKB)
05:57AM 58.9254 20.8542 290° West 444 511 34,000  Level FlightAware ADS-B (ESKB)
05:59AM 58.9937 20.5670 295° West 442 509 34,000  Level FlightAware ADS-B (ESKB)
06:00AM 59.0410 20.2752 288° West 441 507 34,000  Level FlightAware ADS-B (ESKB)
06:01AM 59.0675 20.1095 287° West 442 509 34,000  Level FlightAware ADS-B (ESKB)
06:01AM 59.0891 19.9737 287° West 441 507 34,000  Level FlightAware ADS-B (ESKB)
06:02AM 59.1150 19.8085 287° West 441 507 34,000  Level FlightAware ADS-B (ESKB)
06:03AM 59.1386 19.6566 287° West 442 509 34,000  Level FlightAware ADS-B (ESKB)
06:03AM 59.1617 19.5076 287° West 441 507 34,000  Level FlightAware ADS-B (ESKB)
06:04AM 59.1853 19.3521 287° West 440 506 34,000  Level FlightAware ADS-B (ESKB)
06:05AM 59.2066 19.2111 287° West 440 506 34,000  Level FlightAware ADS-B (ESKB)
06:05AM 59.2306 19.0504 286° West 438 504 34,000  Level FlightAware ADS-B (ESKB)
06:06AM 59.2530 18.8994 286° West 437 503 34,000  Level FlightAware ADS-B (ESKB)
06:07AM 59.2753 18.7479 286° West 435 501 34,000  Level FlightAware ADS-B (ESKB)
06:07AM 59.2980 18.5912 286° West 433 498 34,000  Level FlightAware ADS-B (ESKB)
06:08AM 59.3187 18.4480 286° West 432 497 34,000  Level FlightAware ADS-B (ESKB)
06:09AM 59.3408 18.2938 286° West 431 496 34,000  Level FlightAware ADS-B (ESKB)
06:09AM 59.3621 18.1434 286° West 431 496 34,000  Level FlightAware ADS-B (ESKB)
06:10AM 59.3832 17.9930 285° West 430 495 34,000  Level FlightAware ADS-B (ESKB)
06:11AM 59.4035 17.8464 285° West 431 496 34,000  Level FlightAware ADS-B (ESKB)
06:11AM 59.4236 17.7007 285° West 430 495 34,000  Level FlightAware ADS-B (ESKB)
06:12AM 59.4446 17.5462 285° West 430 495 34,000  Level FlightAware ADS-B (ESKB)
06:13AM 59.4655 17.3920 285° West 430 495 34,000  Level FlightAware ADS-B (ESKB)
06:13AM 59.4826 17.2635 285° West 429 494 34,000  Level FlightAware ADS-B (ESKB)
06:14AM 59.5054 17.0914 285° West 428 493 34,000  Level FlightAware ADS-B (ESKB)
06:15AM 59.5245 16.9458 285° West 426 490 34,000  Level FlightAware ADS-B (ESKB)
06:15AM 59.5446 16.7909 284° West 425 489 34,000  Level FlightAware ADS-B (ESKB)
06:16AM 59.5627 16.6504 284° West 425 489 34,000  Level FlightAware ADS-B (ESKB)
06:17AM 59.5823 16.4951 284° West 426 490 34,000  Level FlightAware ADS-B (ESKB)
06:17AM 59.6004 16.3514 284° West 427 491 34,000  Level FlightAware ADS-B (ESKB)
06:18AM 59.6203 16.1914 284° West 429 494 34,000  Level FlightAware ADS-B (ESKB)
06:19AM 59.6393 16.0379 284° West 431 496 34,000  Level FlightAware ADS-B (ESKB)
06:19AM 59.6564 15.8982 284° West 433 498 34,000  Level FlightAware ADS-B (ESKB)
06:55AM 60.7032 7.5255 282° West 446 513 34,000  Level FlightAware ADS-B (EGBP)
06:55AM 60.7191 7.3621 281° West 446 513 34,000  Level FlightAware ADS-B (EGBP)
06:56AM 60.7349 7.1964 281° West 447 514 34,000  Level FlightAware ADS-B (EGBP)
06:57AM 60.7503 7.0326 281° West 446 513 34,000  Level FlightAware ADS-B (EGBP)
06:57AM 60.7656 6.8655 281° West 447 514 34,000  Level FlightAware ADS-B (EGBP)
06:58AM 60.7808 6.6999 281° West 449 517 34,000  Level FlightAware ADS-B (EGBP)
06:59AM 60.7951 6.5422 281° West 451 519 34,000  Level FlightAware ADS-B (EGBP)
06:59AM 60.8106 6.3684 280° West 452 520 34,000  Level FlightAware ADS-B (EGBP)
07:00AM 60.8238 6.2168 280° West 453 521 34,000  Level FlightAware ADS-B (EGBP)
07:01AM 60.8386 6.0453 280° West 453 521 34,000  Level FlightAware ADS-B (EGBP)
07:01AM 60.8539 5.8643 280° West 453 521 34,000  Level FlightAware ADS-B (EGBP)
07:04AM 60.9009 5.3159 280° West  Level Estimated
07:05AM 60.9213 5.0680 280° West  Level Estimated
07:06AM 60.9413 4.8198 280° West  Level Estimated
07:07AM 60.9609 4.5713 279° West  Level Estimated
07:08AM 60.9800 4.3224 279° West  Level Estimated
07:09AM 60.9986 4.0733 279° West  Level Estimated
07:10AM 61.0168 3.8239 279° West  Level Estimated
07:11AM 61.0345 3.5742 278° West  Level Estimated
07:12AM 61.0518 3.3242 278° West  Level Estimated
07:13AM 61.0686 3.0739 278° West  Level Estimated
07:14AM 61.0849 2.8234 278° West  Level Estimated
07:15AM 61.1008 2.5726 278° West  Level Estimated
07:16AM 61.1162 2.3216 277° West  Level Estimated
07:17AM 61.1311 2.0704 277° West  Level Estimated
07:18AM 61.1456 1.8189 277° West  Level Estimated
07:19AM 61.1596 1.5672 277° West  Level Estimated
07:20AM 61.1731 1.3152 276° West  Level Estimated
07:21AM 61.1862 1.0631 276° West  Level Estimated
07:22AM 61.1988 0.8107 276° West  Level Estimated
07:23AM 61.2109 0.5582 276° West  Level Estimated
07:24AM 61.2226 0.3054 276° West  Level Estimated
07:25AM 61.2338 0.0525 275° West  Level Estimated
07:26AM 61.2445 -0.2006 275° West  Level Estimated
07:27AM 61.2547 -0.4539 275° West  Level Estimated
07:28AM 61.2645 -0.7073 275° West  Level Estimated
07:29AM 61.2738 -0.9609 274° West  Level Estimated
07:30AM 61.2826 -1.2146 274° West  Level Estimated
07:31AM 61.2910 -1.4685 274° West  Level Estimated
07:32AM 61.2989 -1.7225 274° West  Level Estimated
07:33AM 61.3063 -1.9766 274° West  Level Estimated
07:34AM 61.3132 -2.2309 273° West  Level Estimated
07:35AM 61.3196 -2.4852 273° West  Level Estimated
07:36AM 61.3256 -2.7397 273° West  Level Estimated
07:37AM 61.3311 -2.9942 273° West  Level Estimated
07:38AM 61.3362 -3.2489 272° West  Level Estimated
07:39AM 61.3407 -3.5036 272° West  Level Estimated
07:40AM 61.3448 -3.7583 272° West  Level Estimated
07:41AM 61.3484 -4.0132 272° West  Level Estimated
07:42AM 61.3515 -4.2681 272° West  Level Estimated
07:43AM 61.3541 -4.5230 271° West  Level Estimated
07:44AM 61.3563 -4.7780 271° West  Level Estimated
07:45AM 61.3580 -5.0330 271° West  Level Estimated
07:46AM 61.3592 -5.2881 271° West  Level Estimated
07:47AM 61.3599 -5.5431 270° West  Level Estimated
07:48AM 61.3602 -5.7982 270° West  Level Estimated
07:49AM 61.3599 -6.0532 270° West  Level Estimated
07:50AM 61.3592 -6.3083 270° West  Level Estimated
07:51AM 61.3581 -6.5633 270° West  Level Estimated
07:52AM 61.3564 -6.8183 269° West  Level Estimated
07:53AM 61.3543 -7.0733 269° West  Level Estimated
07:54AM 61.3517 -7.3283 269° West  Level Estimated
07:55AM 61.3486 -7.5832 269° West  Level Estimated
07:56AM 61.3450 -7.8380 268° West  Level Estimated
07:57AM 61.3410 -8.0928 268° West  Level Estimated
07:58AM 61.3364 -8.3475 268° West  Level Estimated
07:59AM 61.3314 -8.6022 268° West  Level Estimated
08:00AM 61.3260 -8.8567 268° West  Level Estimated
08:01AM 61.3200 -9.1112 267° West  Level Estimated
08:02AM 61.3136 -9.3656 267° West  Level Estimated
08:03AM 61.3067 -9.6198 267° West  Level Estimated
08:04AM 61.2993 -9.8739 267° West  Level Estimated
08:05AM 61.2915 -10.1279 266° West  Level Estimated
08:06AM 61.2832 -10.3818 266° West  Level Estimated
08:07AM 61.2744 -10.6356 266° West  Level Estimated
08:08AM 61.2651 -10.8892 266° West  Level Estimated
08:09AM 61.2553 -11.1426 266° West  Level Estimated
08:10AM 61.2451 -11.3959 265° West  Level Estimated
08:11AM 61.2344 -11.6490 265° West  Level Estimated
08:12AM 61.2233 -11.9019 265° West  Level Estimated
08:13AM 61.2117 -12.1547 265° West  Level Estimated
08:14AM 61.1996 -12.4073 264° West  Level Estimated
08:15AM 61.1870 -12.6596 264° West  Level Estimated
08:16AM 61.1739 -12.9118 264° West  Level Estimated
08:17AM 61.1604 -13.1637 264° West  Level Estimated
08:18AM 61.1465 -13.4155 264° West  Level Estimated
08:19AM 61.1320 -13.6670 263° West  Level Estimated
08:20AM 61.1171 -13.9183 263° West  Level Estimated
08:21AM 61.1017 -14.1693 263° West  Level Estimated
08:22AM 61.0859 -14.4201 263° West  Level Estimated
08:23AM 61.0696 -14.6706 262° West  Level Estimated
08:24AM 61.0528 -14.9209 262° West  Level Estimated
08:25AM 61.0356 -15.1709 262° West  Level Estimated
08:26AM 61.0179 -15.4206 262° West  Level Estimated
08:27AM 60.9998 -15.6700 262° West  Level Estimated
08:28AM 60.9812 -15.9192 261° West  Level Estimated
08:29AM 60.9621 -16.1680 261° West  Level Estimated
08:30AM 60.9426 -16.4166 261° West  Level Estimated
08:31AM 60.9226 -16.6648 261° West  Level Estimated
08:32AM 60.9021 -16.9128 260° West  Level Estimated
08:33AM 60.8812 -17.1604 260° West  Level Estimated
08:34AM 60.8599 -17.4077 260° West  Level Estimated
08:35AM 60.8381 -17.6546 260° West  Level Estimated
08:36AM 60.8158 -17.9012 260° West  Level Estimated
08:37AM 60.7931 -18.1475 259° West  Level Estimated
08:38AM 60.7699 -18.3934 259° West  Level Estimated
08:39AM 60.7463 -18.6389 259° West  Level Estimated
08:40AM 60.7223 -18.8841 259° West  Level Estimated
08:41AM 60.6978 -19.1290 259° West  Level Estimated
08:42AM 60.6728 -19.3734 258° West  Level Estimated
08:43AM 60.6474 -19.6175 258° West  Level Estimated
08:44AM 60.6216 -19.8611 258° West  Level Estimated
08:45AM 60.5953 -20.1044 258° West  Level Estimated
08:46AM 60.5686 -20.3473 257° West  Level Estimated
08:47AM 60.5414 -20.5898 257° West  Level Estimated
08:48AM 60.5138 -20.8318 257° West  Level Estimated
08:49AM 60.4858 -21.0735 257° West  Level Estimated
08:50AM 60.4573 -21.3147 257° West  Level Estimated
08:51AM 60.4284 -21.5555 256° West  Level Estimated
08:52AM 60.3991 -21.7959 256° West  Level Estimated
08:53AM 60.3693 -22.0358 256° West  Level Estimated
08:54AM 60.3391 -22.2753 256° West  Level Estimated
08:55AM 60.3085 -22.5144 256° West  Level Estimated
08:56AM 60.2774 -22.7530 255° West  Level Estimated
08:57AM 60.2459 -22.9911 255° West  Level Estimated
08:58AM 60.2140 -23.2288 255° West  Level Estimated
08:59AM 60.1817 -23.4660 255° West  Level Estimated
09:00AM 60.1489 -23.7027 255° West  Level Estimated
09:01AM 60.1157 -23.9390 254° West  Level Estimated
09:02AM 60.0821 -24.1748 254° West  Level Estimated
09:03AM 60.0481 -24.4101 254° West  Level Estimated
09:04AM 60.0137 -24.6449 254° West  Level Estimated
09:05AM 59.9788 -24.8793 254° West  Level Estimated
09:06AM 59.9436 -25.1131 253° West  Level Estimated
09:07AM 59.9079 -25.3465 253° West  Level Estimated
09:08AM 59.8718 -25.5793 253° West  Level Estimated
09:09AM 59.8353 -25.8116 253° West  Level Estimated
09:10AM 59.7984 -26.0434 253° West  Level Estimated
09:11AM 59.7611 -26.2747 252° West  Level Estimated
09:12AM 59.7233 -26.5055 252° West  Level Estimated
09:13AM 59.6852 -26.7358 252° West  Level Estimated
09:14AM 59.6467 -26.9655 252° West  Level Estimated
09:15AM 59.6077 -27.1947 252° West  Level Estimated
09:16AM 59.5684 -27.4233 251° West  Level Estimated
09:17AM 59.5287 -27.6515 251° West  Level Estimated
09:18AM 59.4886 -27.8791 251° West  Level Estimated
09:19AM 59.4480 -28.1061 251° West  Level Estimated
09:20AM 59.4071 -28.3326 251° West  Level Estimated
09:21AM 59.3658 -28.5586 250° West  Level Estimated
09:22AM 59.3241 -28.7840 250° West  Level Estimated
09:23AM 59.2821 -29.0088 250° West  Level Estimated
09:24AM 59.2396 -29.2331 250° West  Level Estimated
09:25AM 59.1967 -29.4568 250° West  Level Estimated
09:26AM 59.1535 -29.6800 249° West  Level Estimated
09:27AM 59.1099 -29.9026 249° West  Level Estimated
09:28AM 59.0659 -30.1246 249° West  Level Estimated
09:29AM 59.0215 -30.3461 249° West  Level Estimated
09:30AM 58.9768 -30.5670 249° West  Level Estimated
09:31AM 58.9316 -30.7873 248° West  Level Estimated
09:32AM 58.8861 -31.0070 248° West  Level Estimated
09:33AM 58.8403 -31.2262 248° West  Level Estimated
09:34AM 58.7940 -31.4447 248° West  Level Estimated
09:35AM 58.7474 -31.6627 248° West  Level Estimated
09:36AM 58.7004 -31.8801 247° West  Level Estimated
09:37AM 58.6531 -32.0969 247° West  Level Estimated
09:38AM 58.6054 -32.3132 247° West  Level Estimated
09:39AM 58.5573 -32.5288 247° West  Level Estimated
09:40AM 58.5089 -32.7438 247° West  Level Estimated
09:41AM 58.4601 -32.9583 247° West  Level Estimated
09:42AM 58.4110 -33.1721 246° West  Level Estimated
09:43AM 58.3615 -33.3854 246° West  Level Estimated
09:44AM 58.3116 -33.5980 246° West  Level Estimated
09:45AM 58.2614 -33.8101 246° West  Level Estimated
09:46AM 58.2109 -34.0215 246° West  Level Estimated
09:47AM 58.1600 -34.2324 245° Southwest  Level Estimated
09:48AM 58.1087 -34.4426 245° Southwest  Level Estimated
09:49AM 58.0571 -34.6522 245° Southwest  Level Estimated
09:50AM 58.0052 -34.8613 245° Southwest  Level Estimated
09:51AM 57.9529 -35.0697 245° Southwest  Level Estimated
09:52AM 57.9003 -35.2775 245° Southwest  Level Estimated
09:53AM 57.8473 -35.4847 244° Southwest  Level Estimated
09:54AM 57.7940 -35.6913 244° Southwest  Level Estimated
09:55AM 57.7404 -35.8973 244° Southwest  Level Estimated
09:56AM 57.6864 -36.1026 244° Southwest  Level Estimated
09:57AM 57.6321 -36.3074 244° Southwest  Level Estimated
09:58AM 57.5775 -36.5116 244° Southwest  Level Estimated
09:59AM 57.5226 -36.7151 243° Southwest  Level Estimated
10:00AM 57.4673 -36.9180 243° Southwest  Level Estimated
10:01AM 57.4117 -37.1203 243° Southwest  Level Estimated
10:02AM 57.3558 -37.3220 243° Southwest  Level Estimated
10:03AM 57.2995 -37.5231 243° Southwest  Level Estimated
10:04AM 57.2430 -37.7235 243° Southwest  Level Estimated
10:05AM 57.1861 -37.9234 242° Southwest  Level Estimated
10:06AM 57.1289 -38.1226 242° Southwest  Level Estimated
10:07AM 57.0713 -38.3212 242° Southwest  Level Estimated
10:08AM 57.0135 -38.5192 242° Southwest  Level Estimated
10:09AM 56.9554 -38.7165 242° Southwest  Level Estimated
10:10AM 56.8969 -38.9133 242° Southwest  Level Estimated
10:11AM 56.8382 -39.1094 241° Southwest  Level Estimated
10:12AM 56.7791 -39.3050 241° Southwest  Level Estimated
10:13AM 56.7197 -39.4999 241° Southwest  Level Estimated
10:14AM 56.6600 -39.6942 241° Southwest  Level Estimated
10:15AM 56.6001 -39.8878 241° Southwest  Level Estimated
10:16AM 56.5398 -40.0809 241° Southwest  Level Estimated
10:17AM 56.4792 -40.2733 240° Southwest  Level Estimated
10:18AM 56.4184 -40.4652 240° Southwest  Level Estimated
10:19AM 56.3572 -40.6564 240° Southwest  Level Estimated
10:20AM 56.2957 -40.8470 240° Southwest  Level Estimated
10:21AM 56.2340 -41.0370 240° Southwest  Level Estimated
10:22AM 56.1719 -41.2264 240° Southwest  Level Estimated
10:23AM 56.1096 -41.4151 239° Southwest  Level Estimated
10:24AM 56.0470 -41.6033 239° Southwest  Level Estimated
10:25AM 55.9841 -41.7908 239° Southwest  Level Estimated
10:26AM 55.9209 -41.9777 239° Southwest  Level Estimated
10:27AM 55.8574 -42.1641 239° Southwest  Level Estimated
10:28AM 55.7937 -42.3498 239° Southwest  Level Estimated
10:29AM 55.7296 -42.5349 238° Southwest  Level Estimated
10:30AM 55.6653 -42.7194 238° Southwest  Level Estimated
10:31AM 55.6008 -42.9033 238° Southwest  Level Estimated
10:32AM 55.5359 -43.0866 238° Southwest  Level Estimated
10:33AM 55.4708 -43.2692 238° Southwest  Level Estimated
10:34AM 55.4054 -43.4513 238° Southwest  Level Estimated
10:35AM 55.3397 -43.6328 238° Southwest  Level Estimated
10:36AM 55.2738 -43.8136 237° Southwest  Level Estimated
10:37AM 55.2076 -43.9939 237° Southwest  Level Estimated
10:38AM 55.1411 -44.1736 237° Southwest  Level Estimated
10:39AM 55.0744 -44.3526 237° Southwest  Level Estimated
10:40AM 55.0074 -44.5311 237° Southwest  Level Estimated
10:41AM 54.9401 -44.7090 237° Southwest  Level Estimated
10:42AM 54.8726 -44.8863 237° Southwest  Level Estimated
10:43AM 54.8049 -45.0630 236° Southwest  Level Estimated
10:44AM 54.7368 -45.2391 236° Southwest  Level Estimated
10:45AM 54.6685 -45.4146 236° Southwest  Level Estimated
10:46AM 54.6000 -45.5895 236° Southwest  Level Estimated
10:47AM 54.5312 -45.7638 236° Southwest  Level Estimated
10:48AM 54.4622 -45.9375 236° Southwest  Level Estimated
10:49AM 54.3929 -46.1107 236° Southwest  Level Estimated
10:50AM 54.3234 -46.2832 235° Southwest  Level Estimated
10:50AM 63.1167 -55.0500 235° Southwest 390 449 37,000  Level Gander Center
10:51AM 54.2536 -46.4552 235° Southwest  Level Estimated
10:51AM 63.0667 -55.3167 248° West 450 518 37,000  Level Gander Center
10:52AM 54.1836 -46.6266 235° Southwest  Level Estimated
10:52AM 63.0167 -55.5500 245° Southwest 450 518 37,000  Level Gander Center
10:53AM 54.1133 -46.7975 235° Southwest  Level Estimated
10:53AM 62.9667 -55.8167 248° West 440 506 37,000  Level Gander Center
10:54AM 54.0418 -46.9703 235° Southwest  Level Estimated
10:54AM 62.9167 -56.0500 245° Southwest 450 518 37,000  Level Gander Center
10:55AM 53.9698 -47.1428 235° Southwest  Level Estimated
10:55AM 62.8667 -56.3000 246° West 440 506 37,000  Level Gander Center
10:56AM 62.8167 -56.5333 245° Southwest 440 506 37,000  Level Gander Center
10:57AM 62.7667 -56.7500 243° Southwest 440 506 37,000  Level Gander Center
10:58AM 62.7167 -57.0167 248° West 440 506 37,000  Level Gander Center
10:59AM 62.6500 -57.2500 238° Southwest 440 506 37,000  Level Gander Center
11:00AM 62.6000 -57.5000 247° West 440 506 37,000  Level Gander Center
11:01AM 62.5500 -57.7167 243° Southwest 440 506 37,000  Level Gander Center
11:02AM 62.4833 -57.9500 238° Southwest 440 506 37,000  Level Gander Center
11:03AM 62.4167 -58.1667 236° Southwest 430 495 37,000  Level Gander Center
11:04AM 62.3667 -58.3833 244° Southwest 440 506 37,000  Level Gander Center
11:05AM 62.3000 -58.6000 237° Southwest 440 506 37,000  Level Gander Center
11:06AM 62.2333 -58.8333 239° Southwest 430 495 37,000  Level Gander Center
11:07AM 62.1667 -59.0500 237° Southwest 440 506 37,000  Level Gander Center
11:07AM 62.1333 -59.1167 223° Southwest 370 426 37,000  Level Montreal Center
11:08AM 62.0667 -59.3333 237° Southwest 430 495 37,000  Level Montreal Center
11:09AM 62.0000 -59.5667 239° Southwest 440 506 37,000  Level Montreal Center
11:10AM 61.9333 -59.7500 232° Southwest 430 495 37,000  Level Montreal Center
11:11AM 61.8667 -60.0000 241° Southwest 430 495 37,000  Level Montreal Center
11:12AM 61.8333 -60.1167 239° Southwest 440 506 37,000  Level Gander Center
11:12AM 61.8167 -60.2000 247° West 440 506 37,000  Level Montreal Center
11:13AM 61.7333 -60.4333 233° Southwest 440 506 37,000  Level Montreal Center
11:14AM 61.6667 -60.6333 235° Southwest 440 506 37,000  Level Montreal Center
11:15AM 61.5833 -60.8500 231° Southwest 430 495 37,000  Level Montreal Center
11:16AM 61.5333 -61.0667 244° Southwest 440 506 37,000  Level Montreal Center
11:17AM 61.4667 -61.2333 230° Southwest 440 506 37,000  Level Montreal Center
11:18AM 61.4333 -61.4167 249° West 440 506 37,000  Level Gander Center
11:19AM 61.3667 -61.6333 237° Southwest 440 506 37,000  Level Gander Center
11:19AM 61.3167 -61.7000 213° Southwest 440 506 37,000  Level Montreal Center
11:20AM 61.2500 -61.9000 235° Southwest 430 495 37,000  Level Montreal Center
11:21AM 61.1833 -62.0667 230° Southwest 430 495 37,000  Level Montreal Center
11:22AM 61.1167 -62.3167 241° Southwest 440 506 37,000  Level Montreal Center
11:23AM 61.0500 -62.4833 230° Southwest 430 495 37,000  Level Montreal Center
11:24AM 60.9833 -62.6833 236° Southwest 430 495 37,000  Level Montreal Center
11:25AM 60.9000 -62.9000 232° Southwest 430 495 37,000  Level Montreal Center
11:26AM 60.8667 -63.0833 250° West 430 495 37,000  Level Gander Center
11:26AM 60.8333 -63.1333 216° Southwest 430 495 37,000  Level Montreal Center
11:27AM 60.7667 -63.3333 236° Southwest 440 506 37,000 -180 Level Montreal Center
11:28AM 60.6833 -63.5333 230° Southwest 440 506 36,700 -420 Descending Montreal Center
11:29AM 60.6167 -63.7333 236° Southwest 440 506 36,200 -480 Descending Montreal Center
11:30AM 60.5833 -63.8833 246° West 440 506 36,000 -180 Descending Gander Center
11:31AM 60.5000 -64.0833 230° Southwest 440 506 36,000  Level Gander Center
11:31AM 60.4833 -64.1333 236° Southwest 440 506 36,000  Level Montreal Center
11:32AM 60.4000 -64.3333 230° Southwest 440 506 36,000  Level Montreal Center
11:33AM 60.3333 -64.5333 236° Southwest 440 506 36,000  Level Montreal Center
11:34AM 60.2333 -64.7000 220° Southwest 440 506 36,000  Level Montreal Center
11:35AM 60.1667 -64.8833 234° Southwest 440 506 36,000  Level Montreal Center
11:36AM 60.1333 -65.0500 248° West 450 518 36,000  Level Gander Center
11:36AM 60.1000 -65.1167 225° Southwest 440 506 36,000  Level Montreal Center
11:37AM 60.0167 -65.2500 219° Southwest 440 506 36,000  Level Montreal Center
11:38AM 59.9167 -65.4167 220° Southwest 440 506 36,000  Level Montreal Center
11:39AM 59.8167 -65.5833 220° Southwest 440 506 36,000  Level Montreal Center
11:40AM 59.7333 -65.7333 222° Southwest 440 506 36,000  Level Montreal Center
11:41AM 59.6167 -65.9000 216° Southwest 440 506 36,000  Level Montreal Center
11:42AM 59.5333 -66.0333 219° Southwest 440 506 36,000  Level Montreal Center
11:43AM 59.4167 -66.1667 210° Southwest 440 506 36,000  Level Montreal Center
11:44AM 59.3333 -66.3167 223° Southwest 440 506 36,000  Level Montreal Center
11:45AM 59.2833 -66.4333 230° Southwest 440 506 36,000  Level Gander Center
11:46AM 59.1833 -66.5833 218° Southwest 440 506 36,000  Level Gander Center
11:47AM 59.0833 -66.7333 218° Southwest 440 506 36,000  Level Gander Center
11:47AM 59.0333 -66.7333 180° South 440 506 36,000  Level Montreal Center
11:48AM 58.9333 -66.8833 218° Southwest 440 506 36,000  Level Montreal Center
11:49AM 58.8333 -67.0167 215° Southwest 440 506 36,000  Level Montreal Center
11:50AM 58.8000 -67.1333 241° Southwest 440 506 36,000  Level Gander Center
11:51AM 58.6833 -67.2833 214° Southwest 440 506 36,000  Level Gander Center
11:52AM 58.5833 -67.4167 215° Southwest 440 506 36,000  Level Gander Center
11:52AM 58.5333 -67.4500 199° South 440 506 36,000  Level Montreal Center
11:53AM 58.4333 -67.5667 211° Southwest 440 506 36,000  Level Montreal Center
11:54AM 58.3833 -67.6833 231° Southwest 440 506 36,000  Level Gander Center
11:54AM 58.3333 -67.6833 180° South 440 506 36,000  Level Montreal Center
11:55AM 58.2333 -67.8333 218° Southwest 440 506 36,000  Level Montreal Center
11:56AM 58.1333 -67.9500 212° Southwest 440 506 36,000  Level Montreal Center
11:57AM 58.0333 -68.1000 218° Southwest 430 495 36,000  Level Montreal Center
11:58AM 57.9333 -68.2167 212° Southwest 430 495 36,000  Level Montreal Center
11:59AM 57.8333 -68.3333 212° Southwest 440 506 36,000  Level Montreal Center
12:00PM 57.7333 -68.4833 219° Southwest 440 506 36,000  Level Montreal Center
12:01PM 57.6333 -68.6000 212° Southwest 440 506 36,000  Level Montreal Center
12:02PM 57.5333 -68.7500 219° Southwest 440 506 36,000  Level Montreal Center
12:03PM 57.4333 -68.8667 212° Southwest 440 506 36,000  Level Montreal Center
12:04PM 57.3333 -69.0000 216° Southwest 440 506 36,000  Level Montreal Center
12:05PM 57.2333 -69.1167 212° Southwest 440 506 36,000  Level Montreal Center
12:06PM 57.1333 -69.2333 212° Southwest 440 506 36,000  Level Montreal Center
12:07PM 57.0167 -69.3667 212° Southwest 440 506 36,000  Level Montreal Center
12:08PM 56.9333 -69.4833 217° Southwest 440 506 36,000  Level Montreal Center
12:09PM 56.8667 -69.6333 231° Southwest 440 506 36,000  Level Gander Center
12:09PM 56.8167 -69.6167 170° South 440 506 36,000  Level Montreal Center
12:10PM 56.7000 -69.7667 215° Southwest 440 506 36,000  Level Montreal Center
12:11PM 56.6167 -69.8667 213° Southwest 440 506 36,000  Level Montreal Center
12:12PM 56.5167 -69.9833 213° Southwest 440 506 36,000  Level Montreal Center
12:13PM 56.4000 -70.1167 212° Southwest 440 506 36,000  Level Montreal Center
12:14PM 56.3000 -70.2167 209° Southwest 440 506 36,000  Level Montreal Center
12:15PM 56.2000 -70.3667 220° Southwest 440 506 36,000  Level Montreal Center
12:16PM 56.1000 -70.4667 209° Southwest 440 506 36,000  Level Montreal Center
12:17PM 56.0000 -70.6000 217° Southwest 440 506 36,000  Level Montreal Center
12:18PM 55.8833 -70.7000 206° Southwest 440 506 36,000  Level Montreal Center
12:19PM 55.8000 -70.8333 222° Southwest 440 506 36,000  Level Montreal Center
12:20PM 55.6833 -70.9500 209° Southwest 440 506 36,000  Level Montreal Center
12:21PM 55.5833 -71.0500 209° Southwest 440 506 36,000  Level Montreal Center
12:22PM 55.4667 -71.1833 213° Southwest 440 506 36,000  Level Montreal Center
12:23PM 55.3667 -71.2833 210° Southwest 440 506 36,000  Level Montreal Center
12:24PM 55.2667 -71.4167 217° Southwest 440 506 36,000  Level Montreal Center
12:25PM 55.1667 -71.5167 210° Southwest 430 495 36,000  Level Montreal Center
12:26PM 55.0500 -71.6333 210° Southwest 430 495 36,000  Level Montreal Center
12:27PM 54.9500 -71.7333 210° Southwest 430 495 36,000  Level Montreal Center
12:28PM 54.8500 -71.8333 210° Southwest 430 495 36,000  Level Montreal Center
12:29PM 54.7333 -71.9667 213° Southwest 440 506 36,000  Level Montreal Center
12:30PM 54.6333 -72.0667 210° Southwest 440 506 36,000  Level Montreal Center
12:31PM 54.5500 -72.1667 215° Southwest 440 506 36,000  Level Montreal Center
12:32PM 54.4333 -72.2833 210° Southwest 440 506 36,000  Level Montreal Center
12:33PM 54.3333 -72.3833 210° Southwest 440 506 36,000  Level Montreal Center
12:34PM 54.2167 -72.5000 210° Southwest 440 506 36,000  Level Montreal Center
12:35PM 54.1167 -72.6000 210° Southwest 440 506 36,000  Level Montreal Center
12:36PM 54.0167 -72.7167 214° Southwest 440 506 36,000  Level Montreal Center
12:37PM 53.9000 -72.8167 207° Southwest 440 506 36,000  Level Montreal Center
12:38PM 53.7833 -72.9500 214° Southwest 430 495 36,000  Level Montreal Center
12:39PM 53.6833 -73.0333 206° Southwest 440 506 36,000  Level Montreal Center
12:40PM 53.6000 -73.1500 220° Southwest 440 506 36,000  Level Montreal Center
12:41PM 53.4833 -73.2500 207° Southwest 430 495 36,000  Level Montreal Center
12:42PM 53.3833 -73.3333 206° Southwest 430 495 36,000  Level Montreal Center
12:43PM 53.2833 -73.4500 215° Southwest 430 495 36,000  Level Montreal Center
12:44PM 53.1667 -73.5500 207° Southwest 430 495 36,000  Level Montreal Center
12:45PM 53.0667 -73.6333 207° Southwest 440 506 36,000  Level Montreal Center
12:46PM 52.9667 -73.7500 215° Southwest 430 495 36,000  Level Montreal Center
12:47PM 52.8500 -73.8500 207° Southwest 440 506 36,000  Level Montreal Center
12:48PM 52.7500 -73.9667 215° Southwest 440 506 36,000  Level Montreal Center
12:49PM 52.6333 -74.0500 203° Southwest 440 506 36,000  Level Montreal Center
12:50PM 52.5333 -74.1667 215° Southwest 440 506 36,000  Level Montreal Center
12:51PM 52.4167 -74.2500 204° Southwest 440 506 36,000  Level Montreal Center
12:52PM 52.3167 -74.3667 216° Southwest 440 506 36,000  Level Montreal Center
12:53PM 52.2000 -74.4500 204° Southwest 420 483 36,000  Level Montreal Center
12:54PM 52.1000 -74.5333 207° Southwest 430 495 36,000  Level Montreal Center
12:55PM 52.0000 -74.6500 216° Southwest 450 518 36,000  Level Montreal Center
12:56PM 51.8833 -74.7333 204° Southwest 430 495 36,000  Level Montreal Center
12:57PM 51.7833 -74.8500 216° Southwest 430 495 36,000  Level Montreal Center
12:58PM 51.6833 -74.9333 207° Southwest 430 495 36,000  Level Montreal Center
12:59PM 51.5667 -75.0500 212° Southwest 430 495 36,000  Level Montreal Center
01:00PM 51.4667 -75.1333 207° Southwest 430 495 36,000  Level Montreal Center
01:01PM 51.3500 -75.2167 204° Southwest 430 495 36,000  Level Montreal Center
01:02PM 51.2500 -75.3167 212° Southwest 430 495 36,000  Level Montreal Center
01:03PM 51.1500 -75.4000 208° Southwest 430 495 36,000  Level Montreal Center
01:04PM 51.0500 -75.4833 208° Southwest 430 495 36,000  Level Montreal Center
01:05PM 50.9333 -75.5833 208° Southwest 430 495 36,000  Level Montreal Center
01:06PM 50.8333 -75.6667 208° Southwest 440 506 36,000  Level Montreal Center
01:07PM 50.7333 -75.7833 216° Southwest 440 506 36,000  Level Montreal Center
01:08PM 50.6167 -75.8667 204° Southwest 440 506 36,000  Level Montreal Center
01:09PM 50.5167 -75.9333 203° Southwest 430 495 36,000  Level Montreal Center
01:10PM 50.4000 -76.0500 213° Southwest 430 495 36,000  Level Montreal Center
01:11PM 50.3000 -76.1167 203° Southwest 430 495 36,000  Level Montreal Center
01:12PM 50.1833 -76.2333 213° Southwest 430 495 36,000  Level Montreal Center
01:13PM 50.0833 -76.3000 203° Southwest 430 495 36,000  Level Montreal Center
01:14PM 49.9667 -76.4167 213° Southwest 430 495 36,000  Level Montreal Center
01:15PM 49.8667 -76.4833 203° Southwest 430 495 36,000  Level Montreal Center
01:16PM 49.7500 -76.5667 205° Southwest 430 495 36,000  Level Montreal Center
01:17PM 49.6500 -76.6667 213° Southwest 430 495 36,000  Level Montreal Center
01:18PM 49.5500 -76.7500 208° Southwest 420 483 36,000  Level Montreal Center
01:19PM 49.4333 -76.8167 200° South 450 518 36,000  Level Montreal Center
01:20PM 49.3333 -76.9167 213° Southwest 430 495 36,000  Level Montreal Center
01:21PM 49.2333 -77.0000 209° Southwest 420 483 36,000  Level Montreal Center
01:22PM 49.1167 -77.1000 209° Southwest 440 506 36,000  Level Montreal Center
01:23PM 49.0167 -77.1667 204° Southwest 430 495 36,000  Level Montreal Center
01:24PM 48.9167 -77.2500 209° Southwest 430 495 36,000  Level Montreal Center
01:25PM 48.7833 -77.3500 206° Southwest 430 495 36,000  Level Montreal Center
01:26PM 48.6833 -77.4167 204° Southwest 430 495 36,000  Level Montreal Center
01:27PM 48.5833 -77.4833 204° Southwest 430 495 36,000  Level Montreal Center
01:28PM 48.4667 -77.5833 210° Southwest 430 495 36,000  Level Montreal Center
01:29PM 48.3667 -77.6667 209° Southwest 430 495 36,000  Level Montreal Center
01:30PM 48.2667 -77.7667 214° Southwest 430 495 36,000  Level Montreal Center
01:31PM 48.1500 -77.8333 201° Southwest 430 495 36,000  Level Montreal Center
01:32PM 48.0500 -77.9000 204° Southwest 440 506 36,000  Level Montreal Center
01:33PM 47.9167 -77.9667 199° South 440 506 36,000  Level Montreal Center
01:34PM 47.8000 -78.0500 206° Southwest 440 506 36,000  Level Montreal Center
01:35PM 47.6833 -78.1167 201° Southwest 440 506 36,000  Level Montreal Center
01:36PM 47.5667 -78.1500 191° South 440 506 36,000  Level Montreal Center
01:37PM 47.4667 -78.2333 209° Southwest 440 506 36,000  Level Montreal Center
01:38PM 47.3500 -78.3000 201° Southwest 440 506 36,000  Level Montreal Center
01:39PM 47.2333 -78.3667 201° Southwest 430 495 36,000  Level Montreal Center
01:40PM 47.1000 -78.4333 199° South 440 506 36,000  Level Montreal Center
01:41PM 47.0000 -78.5000 204° Southwest 440 506 36,000  Level Montreal Center
01:42PM 46.8833 -78.5667 201° Southwest 440 506 36,000  Level Montreal Center
01:43PM 46.8333 -78.5667 180° South 440 506 36,000  Level Toronto Center
01:44PM 46.7000 -78.6333 199° South 440 506 36,000  Level Toronto Center
01:45PM 46.6000 -78.6833 199° South 440 506 36,000  Level Toronto Center
01:46PM 46.4833 -78.7667 206° Southwest 430 495 36,000  Level Toronto Center
01:47PM 46.3667 -78.8333 202° Southwest 430 495 36,000  Level Toronto Center
01:48PM 46.2500 -78.8833 197° South 440 506 36,000  Level Toronto Center
01:49PM 46.1333 -78.9500 202° Southwest 440 506 36,000  Level Toronto Center
01:50PM 46.0333 -79.0000 199° South 430 495 36,000  Level Toronto Center
01:51PM 45.9167 -79.0500 197° South 430 495 36,000  Level Toronto Center
01:52PM 45.8000 -79.1333 206° Southwest 440 506 36,000  Level Toronto Center
01:57PM 45.1902 -79.4783 206° Southwest 436 502 36,000  Level FlightAware ADS-B (CYKF)
01:59PM 44.9608 -79.5979 200° South 434 499 36,000  Level FlightAware ADS-B (CYKF)
02:04PM 44.4985 -79.8672 203° Southwest 413 475 36,000  Level FlightAware ADS-B (CYKF)
02:05PM 44.3772 -79.9779 213° Southwest 414 476 36,000  Level FlightAware ADS-B (CYKF)
02:06PM 44.2778 -80.0667 213° Southwest 412 474 36,000  Level FlightAware ADS-B (CYKF)
02:07PM 44.2043 -80.1327 213° Southwest 412 474 36,000  Level FlightAware ADS-B (CYKF)
02:08PM 44.1132 -80.2139 213° Southwest 413 475 36,000  Level FlightAware ADS-B (CYKF)
02:08PM 44.0525 -80.2676 212° Southwest 412 474 36,000  Level FlightAware ADS-B
02:09PM 44.0151 -80.3007 213° Southwest 411 473 36,000  Level FlightAware ADS-B
02:10PM 43.9441 -80.3634 212° Southwest 412 474 36,000  Level FlightAware ADS-B
02:10PM 43.8644 -80.4338 212° Southwest 411 473 36,000  Level FlightAware ADS-B
02:11PM 43.8115 -80.4803 212° Southwest 410 472 36,000  Level FlightAware ADS-B
02:12PM 43.6996 -80.5784 212° Southwest 410 472 36,000  Level FlightAware ADS-B
02:13PM 43.6896 -80.5870 212° Southwest 410 472 36,000  Level FlightAware ADS-B
02:13PM 43.6013 -80.6639 212° Southwest 408 470 36,000  Level FlightAware ADS-B (CYKF)
02:14PM 43.5347 -80.7217 212° Southwest 403 464 36,000  Level FlightAware ADS-B (CYKF)
02:14PM 43.4791 -80.7699 212° Southwest 402 463 36,000  Level FlightAware ADS-B
02:15PM 43.4090 -80.8307 212° Southwest 403 464 36,000  Level FlightAware ADS-B (CYKF)
02:16PM 43.3459 -80.8851 212° Southwest 403 464 36,000  Level FlightAware ADS-B (CYKF)
02:16PM 43.2882 -80.9349 212° Southwest 404 465 36,000  Level FlightAware ADS-B (CYKF)
02:17PM 43.2160 -80.9968 212° Southwest 405 466 36,000  Level FlightAware ADS-B (CYKF)
02:18PM 43.1706 -81.0321 210° Southwest 420 483 36,000  Level FlightAware ADS-B
02:18PM 43.0755 -81.0775 199° South 423 487 36,000  Level FlightAware ADS-B (CYKF)
02:19PM 42.9619 -81.1304 199° South 423 487 36,000  Level FlightAware ADS-B (CYKF)
02:20PM 42.8909 -81.1616 198° South 422 486 36,000  Level FlightAware ADS-B (CYKF)
02:21PM 42.8231 -81.1911 198° South 418 481 36,000  Level FlightAware ADS-B (CYKF)
02:21PM 42.7545 -81.2214 198° South 418 481 36,000  Level FlightAware ADS-B (CYKF)
02:22PM 42.6704 -81.2588 198° South 414 476 36,000  Level FlightAware ADS-B (CYKF)
02:23PM 42.6176 -81.2946 207° Southwest 406 467 36,000  Level FlightAware ADS-B (CYKF)
02:23PM 42.5469 -81.3448 208° Southwest 409 471 36,000  Level FlightAware ADS-B (CYKF)
02:24PM 42.4723 -81.3971 207° Southwest 410 472 36,000  Level FlightAware ADS-B (CYKF)
02:25PM 42.4012 -81.4465 207° Southwest 405 466 36,000  Level FlightAware ADS-B (CYKF)
02:26PM 42.3182 -81.5049 207° Southwest 401 461 36,000  Level FlightAware ADS-B (CYKF)
02:26PM 42.2598 -81.5454 207° Southwest 399 459 36,000  Level FlightAware ADS-B (CYKF)
02:27PM 42.1926 -81.5919 207° Southwest 399 459 36,000  Level FlightAware ADS-B
02:28PM 42.1147 -81.6458 207° Southwest 397 457 36,000  Level FlightAware ADS-B
02:29PM 41.9821 -81.7376 207° Southwest 398 458 36,000  Level FlightAware ADS-B
02:30PM 41.9014 -81.7925 207° Southwest 395 455 36,000  Level Cleveland Center
02:31PM 41.8014 -81.8603 207° Southwest 399 459 36,000  Level Cleveland Center
02:32PM 41.6844 -81.9403 207° Southwest 401 461 36,000  Level Cleveland Center
02:33PM 41.5856 -82.0075 207° Southwest 399 459 36,000  Level Cleveland Center
02:34PM 41.4881 -82.0739 207° Southwest 395 455 36,000  Level Cleveland Center
02:35PM 41.3897 -82.1394 207° Southwest 395 455 36,000  Level Cleveland Center
02:36PM 41.2831 -82.1872 199° South 406 467 36,000  Level Cleveland Center
02:37PM 41.1736 -82.2275 195° South 408 470 36,000  Level Cleveland Center
02:38PM 41.0436 -82.2739 195° South 411 473 36,000  Level Cleveland Center
02:39PM 40.9322 -82.3133 195° South 412 474 36,000  Level Cleveland Center
02:40PM 40.8208 -82.3536 195° South 412 474 36,000  Level Cleveland Center
02:41PM 40.7100 -82.3917 195° South 410 472 36,000  Level Cleveland Center
02:42PM 40.5994 -82.4317 195° South 408 470 36,000  Level Cleveland Center
02:43PM 40.4900 -82.4703 195° South 408 470 36,000  Level Cleveland Center
02:44PM 40.3803 -82.5081 195° South 407 468 36,000  Level Cleveland Center
02:50PM 39.7273 -82.6171 195° South 429 494 36,000  Level FlightAware ADS-B (KPMH)
02:50PM 39.6651 -82.6212 183° South 426 490 36,000  Level FlightAware ADS-B (KPMH)
02:51PM 39.5863 -82.6266 183° South 426 490 36,000  Level FlightAware ADS-B (KPMH)
02:52PM 39.5234 -82.6308 183° South 425 489 36,000  Level FlightAware ADS-B (KPMH)
02:52PM 39.4844 -82.6334 183° South 424 488 36,000  Level FlightAware ADS-B (KPMH)
02:53PM 39.3727 -82.6409 183° South 423 487 36,000  Level FlightAware ADS-B (KPMH)
02:53PM 39.3131 -82.6450 183° South 424 488 36,000  Level FlightAware ADS-B (KPMH)
02:54PM 39.2535 -82.6489 183° South 425 489 36,000  Level FlightAware ADS-B (KPMH)
02:55PM 39.1653 -82.6549 183° South 427 491 36,000  Level FlightAware ADS-B (KPMH)
02:55PM 39.1101 -82.6586 183° South 429 494 36,000  Level FlightAware ADS-B (KPMH)
02:56PM 39.0454 -82.6629 183° South 430 495 36,000  Level FlightAware ADS-B (KPMH)
02:56PM 38.9861 -82.6667 183° South 430 495 36,000  Level FlightAware ADS-B (KPMH)
02:57PM 38.9016 -82.6722 183° South 430 495 36,000  Level FlightAware ADS-B (KPMH)
02:57PM 38.8380 -82.6764 183° South 432 497 36,000  Level FlightAware ADS-B (KPMH)
02:58PM 38.7500 -82.6822 183° South 433 498 36,000  Level FlightAware ADS-B (KPMH)
02:59PM 38.6903 -82.6861 183° South 435 501 36,000  Level FlightAware ADS-B (KPMH)
02:59PM 38.6186 -82.6889 183° South 431 496 36,000  Level Indianapolis Center
03:00PM 38.4961 -82.6978 183° South 437 503 36,000  Level Indianapolis Center
03:01PM 38.3747 -82.7053 183° South 436 502 36,000  Level Indianapolis Center
03:02PM 38.2519 -82.7144 183° South 439 505 36,000  Level Indianapolis Center
03:03PM 38.1092 -82.7225 183° South 438 504 36,000  Level Indianapolis Center
03:04PM 37.9881 -82.7325 184° South 436 502 36,000  Level Indianapolis Center
03:05PM 37.8667 -82.7408 183° South 436 502 36,000  Level Indianapolis Center
03:07PM 37.7439 -82.7489 183° South 438 504 36,000  Level Indianapolis Center
03:08PM 37.6286 -82.7869 195° South 429 494 36,000  Level Indianapolis Center
03:09PM 37.5264 -82.8522 207° Southwest 411 473 36,000  Level Indianapolis Center
03:10PM 37.4078 -82.9308 208° Southwest 413 475 36,000  Level Indianapolis Center
03:11PM 37.3039 -82.9972 207° Southwest 418 481 36,000  Level Indianapolis Center
03:12PM 37.2019 -83.0647 208° Southwest 416 479 36,000  Level Indianapolis Center
03:13PM 37.1006 -83.1314 208° Southwest 415 478 36,000  Level Indianapolis Center
03:14PM 36.9986 -83.1964 207° Southwest 414 476 36,000  Level Indianapolis Center
03:15PM 36.8789 -83.2747 208° Southwest 420 483 36,000  Level Indianapolis Center
03:16PM 36.7750 -83.3414 207° Southwest 422 486 36,000  Level Indianapolis Center
03:17PM 36.6725 -83.4072 207° Southwest 417 480 36,000  Level Indianapolis Center
03:18PM 36.5675 -83.4731 207° Southwest 421 484 36,000  Level Indianapolis Center
03:19PM 36.4644 -83.5414 208° Southwest 418 481 36,000  Level Indianapolis Center
03:20PM 36.3603 -83.6067 207° Southwest 417 480 36,000  Level Indianapolis Center
03:21PM 36.2558 -83.6742 208° Southwest 421 484 36,000  Level Indianapolis Center
03:22PM 36.1278 -83.7539 207° Southwest 427 491 36,000  Level Indianapolis Center
03:23PM 36.0664 -83.7922 207° Southwest 425 489 36,000  Level Atlanta Center
03:24PM 35.9622 -83.8617 208° Southwest 430 495 36,000  Level Atlanta Center
03:29PM 35.2929 -84.0430 208° Southwest 431 496 36,000  Level FlightAware ADS-B (KDZJ)
03:29PM 35.2225 -84.0599 191° South 427 491 36,000  Level FlightAware ADS-B (KDZJ)
03:30PM 35.1504 -84.0772 191° South 430 495 36,000  Level FlightAware ADS-B (KDZJ)
03:31PM 35.0730 -84.0958 191° South 440 506 36,000  Level FlightAware ADS-B (KDZJ)
03:31PM 34.9780 -84.1185 191° South 442 509 36,000  Level FlightAware ADS-B (KDZJ)
03:32PM 34.8971 -84.1378 191° South 440 506 36,000  Level FlightAware ADS-B (KDZJ)
03:33PM 34.8134 -84.1576 191° South 441 507 36,000  Level FlightAware ADS-B (KDZJ)
03:34PM 34.7010 -84.1843 191° South 429 494 36,000  Level FlightAware ADS-B (KDZJ)
03:34PM 34.6160 -84.2044 191° South 428 493 36,000  Level FlightAware ADS-B (KDZJ)
03:35PM 34.5411 -84.2222 191° South 429 494 36,000  Level FlightAware ADS-B (KDZJ)
03:36PM 34.4565 -84.2421 191° South 439 505 36,000 -300 Level FlightAware ADS-B (KDZJ)
03:36PM 34.3759 -84.2610 191° South 428 493 35,600 -600 Descending FlightAware ADS-B (KDZJ)
03:37PM 34.2971 -84.2796 191° South 427 491 35,200 -480 Descending FlightAware ADS-B (KDZJ)
03:38PM 34.2173 -84.2983 191° South 429 494 35,000 -180 Descending FlightAware ADS-B (KDZJ)
03:39PM 34.1408 -84.3162 191° South 423 487 35,000  Level FlightAware ADS-B (KDZJ)
03:39PM 34.0608 -84.3348 191° South 425 489 35,000  Level FlightAware ADS-B (KDZJ)
03:41PM 33.9525 -84.3619 191° South 429 494 35,000  Level Atlanta Center
03:42PM 33.8356 -84.3914 192° South 429 494 35,000  Level Atlanta Center
03:43PM 33.7144 -84.4158 190° South 447 514 35,000  Level Atlanta Center
03:44PM 33.5808 -84.4378 188° South 447 514 35,000  Level Atlanta Center
03:45PM 33.4556 -84.4347 179° South 453 521 35,000  Level Atlanta Center
03:46PM 33.3281 -84.4317 179° South 453 521 35,000  Level Atlanta Center
03:47PM 33.2050 -84.4311 180° South 453 521 35,000  Level Atlanta Center
03:48PM 33.0797 -84.4281 179° South 459 528 35,000  Level Atlanta Center
03:49PM 32.9567 -84.4225 178° South 453 521 35,000  Level Atlanta Center
03:50PM 32.8356 -84.4244 181° South 448 516 35,000  Level Atlanta Center
03:51PM 32.7228 -84.4192 178° South 442 509 35,000  Level Atlanta Center
03:52PM 32.6019 -84.4161 179° South 442 509 35,000  Level Atlanta Center
03:53PM 32.4786 -84.4131 179° South 442 509 35,000  Level Atlanta Center
03:54PM 32.3533 -84.4100 179° South 442 509 35,000  Level Atlanta Center
03:56PM 32.0303 -84.4022 179° South 463 533 35,000  Level Jacksonville Center
03:57PM 31.9008 -84.4000 179° South 463 533 35,000  Level Jacksonville Center
03:58PM 31.7733 -84.4003 180° South 463 533 35,000  Level Jacksonville Center
04:04PM 30.9687 -84.3820 180° South 466 536 35,000  Level FlightAware ADS-B (KTLH)
04:05PM 30.8939 -84.3805 179° South 463 533 35,000  Level FlightAware ADS-B (KTLH)
04:05PM 30.8247 -84.3791 179° South 463 533 35,000  Level FlightAware ADS-B (KTLH)
04:06PM 30.7362 -84.3774 179° South 465 535 35,000  Level FlightAware ADS-B (KTLH)
04:07PM 30.6418 -84.3687 175° South 476 548 35,000  Level FlightAware ADS-B (KTLH)
04:07PM 30.5383 -84.3411 167° South 485 558 35,000  Level FlightAware ADS-B (KTLH)
04:08PM 30.4637 -84.3085 159° South 493 567 35,000  Level FlightAware ADS-B (KTLH)
04:09PM 30.3745 -84.2543 152° Southeast 501 577 35,000  Level FlightAware ADS-B (KTLH)
04:09PM 30.2926 -84.2007 151° Southeast 503 579 35,000  Level FlightAware ADS-B (KTLH)
04:10PM 30.2149 -84.1503 151° Southeast 504 580 35,000  Level FlightAware ADS-B (KTLH)
04:11PM 30.1371 -84.0998 151° Southeast 506 582 35,000  Level FlightAware ADS-B (KTLH)
04:11PM 30.0496 -84.0428 151° Southeast 507 583 35,000  Level FlightAware ADS-B (KTLH)
04:12PM 29.9681 -83.9898 151° Southeast 507 583 35,000  Level FlightAware ADS-B (KTLH)
04:13PM 29.9135 -83.9544 151° Southeast 506 582 35,000  Level FlightAware ADS-B (KTLH)
04:14PM 29.7494 -83.8494 151° Southeast 499 574 35,000  Level Jacksonville Center
04:15PM 29.6267 -83.7717 151° Southeast 499 574 35,000  Level Jacksonville Center
04:16PM 29.5042 -83.6919 150° Southeast 499 574 35,000  Level Jacksonville Center
04:17PM 29.3814 -83.6147 151° Southeast 499 574 35,000  Level Jacksonville Center
04:18PM 29.2608 -83.5378 151° Southeast 499 574 35,000  Level Jacksonville Center
04:19PM 29.1358 -83.4561 150° Southeast 499 574 35,000  Level Jacksonville Center
04:20PM 29.0150 -83.3794 151° Southeast 499 574 35,000  Level Jacksonville Center
04:26PM 28.3422 -82.9546 151° Southeast 506 582 35,000  Level FlightAware ADS-B (KMCO)
04:26PM 28.2405 -82.8911 151° Southeast 506 582 35,000  Level FlightAware ADS-B (KMCO)
04:27PM 28.1607 -82.8414 151° Southeast 508 585 35,000  Level FlightAware ADS-B (KMCO)
04:28PM 27.9846 -82.7319 151° Southeast 507 583 35,000  Level FlightAware ADS-B (KMCO)
04:29PM 27.8737 -82.6629 151° Southeast 509 586 35,000  Level FlightAware ADS-B (KMCO)
04:30PM 27.7782 -82.6021 151° Southeast 501 577 35,000  Level FlightAware ADS-B (KMCO)
04:30PM 27.7321 -82.5883 165° South 486 559 35,000  Level FlightAware ADS-B (KMCO)
04:35PM 27.1358 -82.5758 179° South 477 549 35,000  Level FlightAware ADS-B (KMCO)
04:36PM 27.0251 -82.5739 179° South 479 551 35,000  Level FlightAware ADS-B (KMCO)
04:36PM 26.9321 -82.5722 179° South 480 552 35,000  Level FlightAware ADS-B (KMCO)
04:39PM 26.5801 -82.5661 179° South 484 557 35,000  Level FlightAware ADS-B (KMCO)
04:40PM 26.4884 -82.5646 179° South 484 557 35,000  Level FlightAware ADS-B (KMCO)
04:40PM 26.3956 -82.5628 179° South 483 556 35,000  Level FlightAware ADS-B (KMCO)
04:41PM 26.3172 -82.5613 179° South 483 556 35,000  Level FlightAware ADS-B (KMCO)
04:42PM 26.1739 -82.5587 179° South 482 555 35,000  Level FlightAware ADS-B (KMCO)
04:43PM 26.0833 -82.5568 179° South 482 555 35,000  Level FlightAware ADS-B (KMCO)
04:43PM 25.9978 -82.5553 179° South 480 552 35,000  Level FlightAware ADS-B (KMCO)
04:44PM 25.9045 -82.5537 179° South 479 551 35,000  Level FlightAware ADS-B (KMCO)
04:45PM 25.8377 -82.5524 179° South 479 551 35,000  Level FlightAware ADS-B (KMCO)
04:46PM 25.6992 -82.5497 179° South 480 552 35,000  Level FlightAware ADS-B (KMCO)
04:46PM 25.6008 -82.5479 179° South 481 554 35,000  Level FlightAware ADS-B (KMCO)
04:49PM 25.2773 -82.5421 179° South 483 556 35,000  Level FlightAware ADS-B (KMCO)
04:50PM 25.1539 -82.5414 179° South 480 552 35,000  Level Miami Center
04:51PM 25.0161 -82.5397 179° South 485 558 35,000  Level Miami Center
04:52PM 24.8806 -82.5381 179° South 490 564 35,000  Level Miami Center
04:53PM 24.7447 -82.5364 179° South 490 564 35,000 -720 Level Miami Center
04:54PM 24.6092 -82.5325 179° South 490 564 33,600 -2,700 Descending Miami Center
04:55PM 24.4758 -82.5308 179° South 490 564 29,700 -3,000 Descending Miami Center
04:56PM 24.3400 -82.5292 179° South 496 571 27,600 -2,100 Descending Miami Center
04:57PM 24.2128 -82.5258 179° South 484 557 25,500 -2,100 Descending Miami Center
04:58PM 24.0878 -82.5225 179° South 465 535 23,500 -2,040 Descending Miami Center
04:59PM 23.9708 -82.5261 182° South 441 507 21,500 -2,100 Descending Miami Center
05:00PM 23.8556 -82.5347 184° South 424 488 19,400 -2,100 Descending Miami Center
05:02PM 23.6352 -82.4702 175° South  Level FlightAware Approximate
05:09PM 22.9891 -82.4091 180° South  Level Estimated
05:10PM 22.9891 -82.4091 180° South  Level Estimated
05:11PM 22.9891 -82.4091 180° South  Level Estimated
05:12PM 22.9891 -82.4091 180° South  Level Estimated
05:13PM 22.9891 -82.4091 180° South  Level Estimated
05:14PM 22.9891 -82.4091 180° South  Level Estimated
05:15PM 22.9891 -82.4091 180° South  Level Estimated
05:16PM 22.9891 -82.4091 180° South  Level Estimated
05:17PM 22.9891 -82.4091 180° South  Level Estimated
05:18PM 22.9891 -82.4091 180° South  Level Estimated
05:19PM 22.9891 -82.4091 180° South  Level Estimated
05:20PM 22.9891 -82.4091 180° South  Level Estimated
05:21PM 22.9891 -82.4091 180° South  Level Estimated
05:22PM 22.9891 -82.4091 180° South  Level Estimated
05:23PM 22.9891 -82.4091 180° South  Level Estimated
05:24PM 22.9891 -82.4091 180° South  Level Estimated
05:25PM 22.9891 -82.4091 180° South  Level Estimated
05:26PM 22.9891 -82.4091 180° South  Level Estimated
05:27PM 22.9891 -82.4091 180° South  Level Estimated